Time;durP1;ratioP1;P1;durP2;ratioP2;P2;SDS_P1;SDS_P2;PMS_P1;PMS_P2;Temp;Humidity;BMP_temperature;BMP_pressure;BME280_temperature;BME280_humidity;BME280_pressure;Samples;Min_cycle;Max_cycle;Signal;HPM_P1;HPM_P2
2021/12/05 00:24:58;;;;;;;29.02;16.12;;;;;;;2.38;60.30;98763.06;7841960;31;39280;-79
2021/12/05 01:01:15;;;;;;;26.92;16.42;;;;;;;2.44;61.84;98764.78;7832286;31;39148;-79
2021/12/05 01:10:30;;;;;;;26.48;16.90;;;;;;;2.74;61.64;98745.63;7844872;31;37871;-79
2021/12/05 01:15:08;;;;;;;28.08;16.85;;;;;;;2.24;63.41;98747.25;7813112;32;37142;-79
2021/12/05 01:19:26;;;;;;;30.27;17.90;;;;;;;2.15;63.90;98746.00;7813048;32;39177;-79
2021/12/05 01:23:55;;;;;;;32.42;17.70;;;;;;;2.54;62.86;98743.44;7813742;32;39858;-78
2021/12/05 01:42:30;;;;;;;32.00;18.30;;;;;;;2.22;63.94;98729.72;7741492;32;39856;-78
2021/12/05 02:40:48;;;;;;;26.60;16.65;;;;;;;2.37;63.83;98688.81;7847607;31;38673;-78
2021/12/05 02:45:07;;;;;;;30.33;17.25;;;;;;;2.69;62.73;98672.06;7847737;31;37254;-78
2021/12/05 02:49:25;;;;;;;30.42;17.00;;;;;;;2.18;64.61;98685.56;7846421;31;39978;-78
2021/12/05 02:53:46;;;;;;;32.38;17.67;;;;;;;2.41;63.20;98690.75;7847526;31;40000;-79
2021/12/05 02:58:14;;;;;;;29.55;16.83;;;;;;;2.63;66.42;98685.44;7847463;31;37783;-79
2021/12/05 03:02:38;;;;;;;28.42;17.15;;;;;;;2.48;64.66;98690.59;7847448;31;37068;-79
2021/12/05 03:06:56;;;;;;;26.80;16.55;;;;;;;2.71;63.35;98691.44;7847442;31;39952;-78
2021/12/05 03:11:13;;;;;;;32.60;18.33;;;;;;;2.35;64.14;98699.00;7846180;31;40023;-78
2021/12/05 03:15:29;;;;;;;27.73;16.00;;;;;;;2.87;62.00;98693.31;7846766;31;37546;-78
2021/12/05 03:19:46;;;;;;;30.70;18.37;;;;;;;2.84;62.21;98685.72;7847167;31;36797;-78
2021/12/05 03:24:02;;;;;;;30.67;18.15;;;;;;;2.49;63.20;98676.09;7847192;31;40007;-78
2021/12/05 03:28:19;;;;;;;29.60;17.00;;;;;;;2.42;63.10;98687.00;7847213;31;40797;-78
2021/12/05 03:32:36;;;;;;;32.28;18.10;;;;;;;2.49;63.43;98694.12;7846974;31;37906;-79
2021/12/05 03:36:54;;;;;;;29.45;16.98;;;;;;;2.47;63.78;98688.13;7847019;31;37943;-78
2021/12/05 03:41:12;;;;;;;31.00;17.70;;;;;;;2.76;62.83;98684.28;7846945;31;38161;-78
2021/12/05 03:45:32;;;;;;;27.85;16.42;;;;;;;2.73;62.83;98692.03;7846686;31;40766;-78
2021/12/05 03:49:49;;;;;;;25.15;16.50;;;;;;;2.55;62.92;98685.03;7846476;31;37980;-78
2021/12/05 03:54:06;;;;;;;30.37;17.00;;;;;;;2.57;63.33;98686.44;7846695;31;37361;-78
2021/12/05 03:58:23;;;;;;;28.08;15.70;;;;;;;2.69;63.11;98669.38;7846717;31;39443;-78
2021/12/05 04:02:41;;;;;;;27.15;16.58;;;;;;;2.79;62.83;98675.72;7845315;31;39948;-78
2021/12/05 04:06:57;;;;;;;27.83;17.08;;;;;;;2.94;62.20;98666.22;7846362;31;38042;-78
2021/12/05 04:11:25;;;;;;;28.83;16.92;;;;;;;2.68;63.32;98673.13;7846483;31;37628;-78
2021/12/05 04:15:42;;;;;;;29.83;17.92;;;;;;;2.76;62.94;98680.75;7846163;31;39704;-78
2021/12/05 04:19:59;;;;;;;28.00;17.23;;;;;;;2.63;63.44;98676.56;7846019;31;39957;-79
2021/12/05 04:24:15;;;;;;;34.25;18.80;;;;;;;2.61;63.57;98682.19;7844811;31;37914;-79
2021/12/05 04:28:31;;;;;;;29.85;16.73;;;;;;;2.79;63.16;98685.66;7846410;31;37690;-78
2021/12/05 04:32:49;;;;;;;29.90;17.05;;;;;;;2.54;64.07;98678.03;7845883;31;39323;-78
2021/12/05 04:37:05;;;;;;;30.35;18.48;;;;;;;2.66;63.41;98676.06;7845686;31;40860;-79
2021/12/05 04:41:23;;;;;;;31.50;18.25;;;;;;;2.81;63.15;98673.59;7845494;31;37585;-78
2021/12/05 04:45:40;;;;;;;31.48;17.98;;;;;;;2.65;63.89;98679.00;7845627;31;37056;-78
2021/12/05 04:49:57;;;;;;;27.65;16.92;;;;;;;2.91;62.79;98677.47;7845400;31;40030;-78
2021/12/05 04:54:16;;;;;;;30.52;17.65;;;;;;;2.86;63.00;98680.91;7845261;31;40099;-78
2021/12/05 04:58:32;;;;;;;28.92;18.92;;;;;;;2.86;62.97;98667.44;7845793;31;37858;-78
2021/12/05 05:02:50;;;;;;;38.00;18.65;;;;;;;2.67;63.88;98683.06;7847706;31;36837;-78
2021/12/05 05:07:15;;;;;;;33.67;19.80;;;;;;;2.76;63.38;98672.69;7848864;31;39960;-79
2021/12/05 05:11:31;;;;;;;31.33;18.12;;;;;;;2.78;63.44;98681.34;7848794;31;40789;-79
2021/12/05 05:15:47;;;;;;;33.15;18.70;;;;;;;2.61;64.23;98684.06;7848485;31;37940;-78
2021/12/05 05:20:13;;;;;;;32.00;19.12;;;;;;;2.77;63.67;98699.34;7848704;31;37616;-78
2021/12/05 05:29:20;;;;;;;32.95;19.05;;;;;;;2.62;64.03;98686.50;7848660;31;40025;-78
2021/12/05 05:47:28;;;;;;;31.98;18.92;;;;;;;2.70;64.24;98708.69;7848404;31;40469;-79
2021/12/05 05:51:45;;;;;;;34.53;19.08;;;;;;;2.75;63.72;98723.03;7848368;31;37799;-78
2021/12/05 05:56:03;;;;;;;37.45;21.12;;;;;;;2.72;63.83;98717.31;7848306;31;36759;-78
2021/12/05 06:00:35;;;;;;;32.78;19.90;;;;;;;2.66;64.46;98713.75;7848190;31;38951;-79
2021/12/05 06:04:51;;;;;;;34.00;18.62;;;;;;;2.57;64.86;98716.03;7848354;31;41000;-78
2021/12/05 06:09:08;;;;;;;38.00;19.50;;;;;;;2.70;64.56;98714.88;7847707;31;38588;-78
2021/12/05 06:13:26;;;;;;;38.13;18.67;;;;;;;2.62;64.76;98712.59;7848101;31;35952;-78
2021/12/05 06:17:43;;;;;;;32.80;19.10;;;;;;;2.53;65.08;98703.31;7847920;31;39997;-78
2021/12/05 06:22:00;;;;;;;32.85;19.30;;;;;;;2.63;64.81;98709.66;7847887;31;39590;-78
2021/12/05 06:26:22;;;;;;;32.03;19.45;;;;;;;2.77;64.52;98703.94;7847943;31;37898;-78
2021/12/05 06:48:33;;;;;;;28.83;18.55;;;;;;;2.82;64.21;98728.22;7846636;31;37224;-78
2021/12/05 06:52:49;;;;;;;30.33;19.15;;;;;;;3.05;63.65;98704.84;7847601;31;39208;-78
2021/12/05 06:57:06;;;;;;;36.08;18.37;;;;;;;2.73;64.49;98722.47;7847543;31;40554;-78
2021/12/05 07:01:23;;;;;;;34.05;19.75;;;;;;;2.79;64.65;98723.34;7847308;31;37957;-78
2021/12/05 07:05:49;;;;;;;31.08;18.30;;;;;;;2.69;64.83;98734.78;7847519;31;37756;-80
2021/12/05 07:10:07;;;;;;;37.40;18.90;;;;;;;2.97;63.98;98733.84;7847393;31;39015;-80
2021/12/05 07:23:42;;;;;;;26.73;16.52;;;;;;;2.94;64.06;98739.72;7846228;31;37155;-79
2021/12/05 07:41:52;;;;;;;33.00;17.95;;;;;;;3.12;63.25;98738.63;7847113;31;37628;-79
2021/12/05 07:46:08;;;;;;;34.88;19.45;;;;;;;2.96;63.63;98742.97;7845741;31;39205;-79
2021/12/05 07:50:41;;;;;;;34.65;19.20;;;;;;;2.99;63.98;98761.31;7846718;31;40017;-78
2021/12/05 07:55:13;;;;;;;34.03;18.87;;;;;;;3.14;63.65;98767.97;7846884;31;38599;-79
2021/12/05 08:17:33;;;;;;;34.17;18.60;;;;;;;3.12;64.34;98805.97;7846040;31;37705;-79
2021/12/05 08:21:55;;;;;;;35.72;19.48;;;;;;;3.31;63.87;98809.19;7846084;31;38875;-79
2021/12/05 08:26:17;;;;;;;38.45;19.35;;;;;;;3.38;63.38;98812.53;7845995;31;40751;-80
2021/12/05 08:30:36;;;;;;;34.10;18.37;;;;;;;3.46;63.08;98815.84;7845915;31;37685;-80
2021/12/05 09:29:20;;;;;;;31.42;17.17;;;;;;;3.96;62.53;98790.56;7848409;31;37999;-79
2021/12/05 10:10:45;;;;;;;26.52;15.13;;;;;;;4.06;61.83;98766.41;7847963;31;39755;-81
2021/12/05 10:38:08;;;;;;;34.65;17.55;;;;;;;3.67;63.30;98769.22;7847734;31;38694;-80
2021/12/05 10:42:39;;;;;;;31.25;16.98;;;;;;;3.94;62.90;98755.75;7847374;31;37145;-80
2021/12/05 10:46:55;;;;;;;30.52;17.15;;;;;;;4.04;62.78;98749.69;7847679;31;39325;-80
2021/12/05 10:51:33;;;;;;;31.62;17.27;;;;;;;4.05;62.72;98743.22;7847479;31;40799;-77
2021/12/05 10:56:18;;;;;;;30.23;16.80;;;;;;;4.08;62.84;98748.09;7846335;31;37899;-79
2021/12/05 11:00:34;;;;;;;32.95;18.20;;;;;;;3.87;63.58;98747.06;7841170;31;36976;-82
2021/12/05 11:04:51;;;;;;;31.98;18.98;;;;;;;4.03;63.34;98739.12;7847453;31;40055;-81
2021/12/05 11:09:15;;;;;;;33.53;17.77;;;;;;;3.85;63.11;98735.72;7846680;31;40985;-82
2021/12/05 11:13:31;;;;;;;34.47;17.42;;;;;;;3.79;62.82;98735.94;7846398;31;37533;-82
2021/12/05 11:17:50;;;;;;;37.40;19.65;;;;;;;4.30;61.25;98736.44;7846338;31;35854;-81
2021/12/05 11:22:19;;;;;;;30.75;16.65;;;;;;;4.10;62.20;98727.06;7846371;31;39251;-80
2021/12/05 11:26:37;;;;;;;34.42;18.20;;;;;;;4.30;61.46;98725.63;7844682;31;40026;-82
2021/12/05 11:30:56;;;;;;;32.55;18.08;;;;;;;4.17;61.94;98723.34;7846518;31;38383;-79
2021/12/05 11:35:14;;;;;;;33.83;18.75;;;;;;;4.05;62.25;98708.16;7847111;31;36983;-80
2021/12/05 11:39:30;;;;;;;29.95;16.95;;;;;;;4.44;61.13;98699.84;7847103;31;38200;-79
2021/12/05 11:43:58;;;;;;;33.03;17.15;;;;;;;4.13;61.71;98704.97;7846778;31;40772;-80
2021/12/05 11:48:23;;;;;;;30.20;16.90;;;;;;;4.44;61.04;98705.25;7846848;31;37764;-80
2021/12/05 11:52:46;;;;;;;31.50;17.30;;;;;;;4.53;61.02;98699.38;7846809;31;37243;-80
2021/12/05 11:57:07;;;;;;;36.30;18.52;;;;;;;4.44;60.97;98702.53;7846847;31;40041;-80
2021/12/05 12:01:23;;;;;;;37.92;18.70;;;;;;;4.51;60.60;98697.72;7846525;31;40939;-80
2021/12/05 12:05:39;;;;;;;35.30;19.08;;;;;;;4.68;60.64;98696.78;7846511;31;38545;-81
2021/12/05 12:10:14;;;;;;;35.17;19.77;;;;;;;4.61;60.74;98709.69;7845980;31;36933;-80
2021/12/05 12:14:30;;;;;;;38.40;18.87;;;;;;;4.37;60.63;98707.34;7846473;31;39361;-79
2021/12/05 12:18:49;;;;;;;38.05;19.10;;;;;;;4.39;60.15;98707.91;7835086;31;352016;-79
2021/12/05 12:23:06;;;;;;;35.80;20.45;;;;;;;4.27;60.71;98699.97;7846091;31;37887;-79
2021/12/05 12:27:23;;;;;;;37.63;20.60;;;;;;;4.33;60.79;98704.34;7846065;31;37190;-79
2021/12/05 12:31:44;;;;;;;41.85;22.30;;;;;;;4.42;60.01;98712.78;7845988;31;39763;-80
2021/12/05 12:36:01;;;;;;;41.55;20.52;;;;;;;4.08;61.16;98710.31;7845830;31;40751;-80
2021/12/05 12:40:34;;;;;;;38.42;20.83;;;;;;;4.07;61.72;98689.00;7845629;31;38356;-80
2021/12/05 12:45:08;;;;;;;42.83;22.10;;;;;;;4.35;60.83;98690.59;7844500;31;37937;-80
2021/12/05 12:49:31;;;;;;;41.08;21.35;;;;;;;4.55;60.02;98689.13;7845428;31;39155;-80
2021/12/05 12:53:52;;;;;;;41.33;22.35;;;;;;;4.45;60.70;98698.78;7845284;31;40495;-80
2021/12/05 12:58:11;;;;;;;44.22;22.02;;;;;;;4.53;60.22;98707.47;7844103;31;37915;-79
2021/12/05 13:11:48;;;;;;;39.53;21.02;;;;;;;4.48;60.55;98679.38;7844952;31;40723;-79
2021/12/05 13:16:28;;;;;;;42.75;21.37;;;;;;;4.41;60.92;98673.38;7844553;31;38630;-79
2021/12/05 13:20:56;;;;;;;39.03;20.37;;;;;;;4.53;60.48;98669.69;7846574;31;37060;-79
2021/12/05 13:25:13;;;;;;;37.30;21.50;;;;;;;4.59;60.06;98676.72;7848543;31;40004;-79
2021/12/05 13:29:49;;;;;;;38.42;20.55;;;;;;;4.53;59.97;98673.19;7848481;31;41037;-80
2021/12/05 13:34:22;;;;;;;47.40;22.58;;;;;;;4.28;61.18;98674.63;7848481;31;38040;-80
2021/12/05 13:38:40;;;;;;;46.73;22.60;;;;;;;4.01;62.25;98666.56;7848262;31;37215;-80
2021/12/05 13:43:08;;;;;;;39.80;20.83;;;;;;;4.07;61.74;98668.25;7848363;31;38157;-80
2021/12/05 13:47:31;;;;;;;38.95;20.92;;;;;;;4.09;62.05;98658.03;7848448;31;40770;-79
2021/12/05 13:51:47;;;;;;;46.05;22.52;;;;;;;3.86;62.78;98647.56;7848330;31;38506;-79
2021/12/05 13:56:12;;;;;;;50.25;23.90;;;;;;;3.89;62.55;98657.84;7847199;31;37978;-79
2021/12/05 14:01:01;;;;;;;46.67;23.25;;;;;;;4.25;61.38;98647.34;7848298;31;39844;-79
2021/12/05 14:05:30;;;;;;;47.15;23.33;;;;;;;3.91;62.72;98647.59;7848173;31;40524;-79
2021/12/05 14:09:48;;;;;;;51.58;24.60;;;;;;;4.18;61.93;98649.47;7847417;31;37862;-81
2021/12/05 14:14:06;;;;;;;45.72;22.90;;;;;;;4.14;62.35;98659.97;7847323;31;37954;-82
2021/12/05 14:18:22;;;;;;;50.53;23.27;;;;;;;4.06;62.55;98655.81;7846665;31;38953;-81
2021/12/05 14:22:41;;;;;;;51.35;24.48;;;;;;;4.37;61.55;98647.97;7847307;31;40843;-82
2021/12/05 14:26:59;;;;;;;45.58;24.02;;;;;;;3.76;63.26;98667.97;7847801;31;36791;-80
2021/12/05 14:31:24;;;;;;;48.90;23.77;;;;;;;4.12;62.53;98676.41;7847645;31;36957;-80
2021/12/05 14:35:40;;;;;;;47.38;23.02;;;;;;;4.19;61.82;98680.75;7847826;31;39198;-78
2021/12/05 14:39:59;;;;;;;51.00;24.87;;;;;;;4.04;62.50;98679.56;7847645;31;40063;-81
2021/12/05 14:44:17;;;;;;;51.15;26.67;;;;;;;3.81;63.75;98690.66;7847557;31;37586;-80
2021/12/05 14:48:34;;;;;;;59.60;30.08;;;;;;;4.16;62.36;98687.47;7847612;31;37138;-80
2021/12/05 14:52:53;;;;;;;70.20;32.15;;;;;;;3.88;63.35;98680.47;7848118;31;39048;-79
2021/12/05 14:57:15;;;;;;;76.10;32.55;;;;;;;3.80;63.82;98694.44;7846812;31;40114;-80
2021/12/05 15:01:32;;;;;;;62.72;30.77;;;;;;;4.06;62.87;98696.28;7847375;31;38766;-80
2021/12/05 15:05:51;;;;;;;62.15;30.33;;;;;;;3.89;63.45;98703.69;7846922;31;38104;-80
2021/12/05 15:10:09;;;;;;;62.35;30.67;;;;;;;4.13;62.66;98720.34;7845634;31;39022;-79
2021/12/05 15:14:26;;;;;;;59.47;28.80;;;;;;;3.95;63.39;98722.34;7846912;31;40957;-80
2021/12/05 15:18:44;;;;;;;60.35;30.85;;;;;;;3.95;63.16;98718.84;7846930;31;38676;-79
2021/12/05 15:23:03;;;;;;;60.85;29.58;;;;;;;3.71;63.93;98708.34;7847190;31;37922;-79
2021/12/05 15:27:21;;;;;;;60.50;28.52;;;;;;;3.72;63.96;98706.47;7847280;31;38867;-79
2021/12/05 15:31:39;;;;;;;53.87;26.87;;;;;;;3.89;63.17;98717.16;7847284;31;40622;-79
2021/12/05 15:35:58;;;;;;;53.10;27.75;;;;;;;4.10;62.63;98708.19;7847211;31;38147;-79
2021/12/05 15:40:16;;;;;;;58.03;29.35;;;;;;;3.95;63.12;98694.56;7847196;31;38274;-78
2021/12/05 15:44:39;;;;;;;50.65;25.10;;;;;;;3.95;63.13;98686.50;7846474;31;38175;-78
2021/12/05 15:48:57;;;;;;;;;;;;;;;3.83;63.53;98683.09;7847329;31;39570;-80
2021/12/05 15:53:15;;;;;;;46.03;23.75;;;;;;;3.82;63.55;98686.88;7847049;31;38113;-80
2021/12/05 15:57:35;;;;;;;46.60;24.17;;;;;;;3.93;63.27;98677.81;7846865;31;36218;-80
2021/12/05 16:01:54;;;;;;;46.05;23.70;;;;;;;3.75;63.92;98674.41;7845610;31;39717;-78
2021/12/05 16:06:13;;;;;;;42.13;23.33;;;;;;;3.61;65.79;98678.59;7845576;31;40794;-77
2021/12/05 16:10:33;;;;;;;42.78;21.80;;;;;;;3.84;64.26;98682.84;7846646;31;38889;-75
2021/12/05 16:14:56;;;;;;;49.28;23.05;;;;;;;3.87;63.95;98668.06;7846415;31;37896;-76
2021/12/05 16:19:13;;;;;;;;;;;;;;;3.60;64.74;98689.63;7846498;31;40028;-80
2021/12/05 16:23:30;;;;;;;49.67;26.33;;;;;;;3.62;64.37;98696.38;7846449;31;40095;-80
2021/12/05 16:27:51;;;;;;;51.45;26.83;;;;;;;3.86;63.96;98691.50;7845965;31;38484;-81
2021/12/05 16:32:07;;;;;;;48.90;25.58;;;;;;;3.97;63.64;98692.44;7844865;31;36790;-80
2021/12/05 16:36:38;;;;;;;55.50;26.98;;;;;;;4.11;63.24;98704.44;7845930;31;39075;-80
2021/12/05 16:40:58;;;;;;;50.28;26.98;;;;;;;4.05;63.46;98718.13;7845669;31;39937;-79
2021/12/05 16:45:14;;;;;;;54.63;27.67;;;;;;;3.75;64.23;98730.22;7845585;31;37958;-80
2021/12/05 16:49:33;;;;;;;56.83;27.08;;;;;;;3.98;63.81;98739.09;7845598;31;37145;-80
2021/12/05 16:53:52;;;;;;;48.33;25.00;;;;;;;4.01;63.57;98747.47;7846373;31;39127;-79
2021/12/05 16:58:17;;;;;;;46.47;24.12;;;;;;;4.02;63.72;98749.13;7848980;31;40855;-80
2021/12/05 17:02:41;;;;;;;45.17;23.77;;;;;;;4.10;63.36;98740.53;7847710;31;38645;-80
2021/12/05 17:06:57;;;;;;;43.55;22.30;;;;;;;3.92;63.81;98735.53;7849042;31;37125;-80
2021/12/05 17:11:18;;;;;;;49.05;24.95;;;;;;;4.03;63.46;98734.56;7846534;31;39751;-80
2021/12/05 17:15:36;;;;;;;52.83;27.13;;;;;;;3.85;63.87;98746.50;7836750;31;40156;-80
2021/12/05 17:19:52;;;;;;;53.35;27.10;;;;;;;3.09;66.59;98765.25;7830491;31;38059;-80
2021/12/05 17:24:21;;;;;;;43.80;24.55;;;;;;;3.71;64.27;98764.97;7820858;32;38027;-80
2021/12/05 17:28:41;;;;;;;49.85;25.80;;;;;;;3.71;65.04;98751.47;7821093;32;39183;-79
2021/12/05 17:32:58;;;;;;;50.80;25.67;;;;;;;3.80;64.11;98765.34;7821107;32;39616;-79
2021/12/05 17:37:26;;;;;;;49.80;25.75;;;;;;;3.82;64.19;98778.56;7820963;32;37940;-79
2021/12/05 17:41:46;;;;;;;46.13;24.58;;;;;;;3.96;63.87;98777.09;7821011;32;37899;-79
2021/12/05 17:46:03;;;;;;;48.00;24.58;;;;;;;3.82;63.90;98781.25;7820920;32;39304;-79
2021/12/05 17:50:20;;;;;;;46.47;24.67;;;;;;;3.68;64.18;98795.13;7820845;32;39788;-81
2021/12/05 17:54:51;;;;;;;47.70;24.50;;;;;;;3.56;64.80;98787.16;7835428;31;37988;-82
2021/12/05 17:59:28;;;;;;;48.33;24.45;;;;;;;3.95;63.90;98772.78;7848335;31;37898;-80
2021/12/05 18:03:46;;;;;;;64.57;26.80;;;;;;;3.74;64.32;98759.06;7847619;31;39496;-78
2021/12/05 18:08:10;;;;;;;46.63;24.37;;;;;;;3.55;64.93;98763.12;7845817;31;40639;-81
2021/12/05 18:12:34;;;;;;;59.13;31.00;;;;;;;3.78;64.24;98772.03;7848064;31;37933;-81
2021/12/05 18:16:50;;;;;;;58.47;29.20;;;;;;;3.15;66.27;98783.09;7848098;31;37895;-80
2021/12/05 18:21:09;;;;;;;48.58;27.27;;;;;;;3.54;65.21;98785.78;7848014;31;39168;-81
2021/12/05 18:25:27;;;;;;;55.97;28.00;;;;;;;3.67;64.78;98771.91;7847790;31;39893;-80
2021/12/05 18:29:44;;;;;;;54.97;28.52;;;;;;;3.93;63.69;98758.72;7847883;31;36866;-80
2021/12/05 18:34:09;;;;;;;53.87;28.38;;;;;;;3.97;63.78;98767.94;7847821;31;37123;-78
2021/12/05 18:38:26;;;;;;;58.17;29.75;;;;;;;4.13;63.18;98775.13;7847859;31;38979;-78
2021/12/05 18:42:43;;;;;;;48.33;27.27;;;;;;;4.21;62.69;98783.81;7847604;31;40747;-79
2021/12/05 18:46:59;;;;;;;57.83;27.45;;;;;;;4.17;62.74;98777.31;7847539;31;37926;-80
2021/12/05 18:51:17;;;;;;;52.72;26.75;;;;;;;3.90;63.75;98781.63;7847569;31;37729;-79
2021/12/05 18:55:34;;;;;;;49.25;25.73;;;;;;;3.99;63.57;98768.50;7847412;31;38923;-79
2021/12/05 19:00:09;;;;;;;53.10;27.70;;;;;;;3.71;64.20;98777.62;7846264;31;40723;-79
2021/12/05 19:04:35;;;;;;;50.95;27.87;;;;;;;3.74;64.03;98760.94;7847454;31;37906;-80
2021/12/05 19:13:25;;;;;;;;;;;;;;;3.61;64.78;98751.37;7845381;31;39995;-80
2021/12/05 19:17:45;;;;;;;53.20;26.60;;;;;;;3.66;64.52;98748.72;7843801;31;40730;-80
2021/12/05 19:22:03;;;;;;;51.05;27.50;;;;;;;3.55;64.48;98734.31;7844381;31;37759;-80
2021/12/05 19:26:20;;;;;;;46.00;25.95;;;;;;;3.71;63.97;98719.13;7846741;31;37084;-79
2021/12/05 19:30:46;;;;;;;48.40;26.12;;;;;;;3.32;65.59;98727.28;7847115;31;39963;-79
2021/12/05 19:35:03;;;;;;;45.33;25.67;;;;;;;3.51;65.17;98724.28;7845917;31;40002;-80
2021/12/05 19:39:23;;;;;;;43.50;24.73;;;;;;;3.68;64.47;98722.31;7846968;31;38453;-80
2021/12/05 19:43:40;;;;;;;50.38;28.15;;;;;;;3.80;64.32;98716.00;7846910;31;38291;-78
2021/12/05 19:47:59;;;;;;;53.90;29.87;;;;;;;3.29;65.80;98735.87;7847048;31;39361;-81
2021/12/05 19:52:18;;;;;;;54.15;28.77;;;;;;;3.39;65.62;98727.09;7846756;31;41105;-80
2021/12/05 19:56:35;;;;;;;43.35;25.52;;;;;;;3.79;64.51;98736.72;7846456;31;37874;-80
2021/12/05 20:00:52;;;;;;;46.03;24.75;;;;;;;3.54;65.41;98739.97;7846672;31;36771;-80
2021/12/05 20:05:10;;;;;;;48.95;26.02;;;;;;;3.57;64.95;98739.47;7846560;31;39938;-80
2021/12/05 20:09:27;;;;;;;46.13;25.05;;;;;;;3.74;64.45;98729.41;7845323;31;39000;-81
2021/12/05 20:13:44;;;;;;;45.90;24.10;;;;;;;3.81;64.69;98714.91;7846326;31;37844;-80
2021/12/05 20:18:04;;;;;;;47.72;25.65;;;;;;;3.57;65.04;98717.91;7846157;31;37839;-80
2021/12/05 20:22:20;;;;;;;42.13;23.52;;;;;;;4.03;63.57;98731.84;7845869;31;39166;-80
2021/12/05 20:26:37;;;;;;;40.00;22.90;;;;;;;3.84;64.38;98723.31;7845499;31;40800;-80
2021/12/05 20:30:53;;;;;;;40.72;22.87;;;;;;;3.93;63.73;98729.06;7844801;31;38840;-81
2021/12/05 20:35:12;;;;;;;43.08;22.25;;;;;;;3.97;63.69;98732.88;7845583;31;36977;-82
2021/12/05 20:39:28;;;;;;;44.75;24.63;;;;;;;4.02;63.50;98741.03;7845885;31;38382;-81
2021/12/05 20:43:45;;;;;;;42.83;23.60;;;;;;;3.83;64.23;98734.34;7845421;31;39906;-81
2021/12/05 20:48:03;;;;;;;39.15;22.95;;;;;;;4.03;63.51;98739.94;7845492;31;37654;-80
2021/12/05 20:52:19;;;;;;;42.70;23.00;;;;;;;3.90;64.02;98734.97;7845443;31;37205;-80
2021/12/05 20:56:35;;;;;;;41.10;23.02;;;;;;;4.11;63.19;98728.69;7844957;31;39275;-80
2021/12/05 21:00:55;;;;;;;38.97;22.00;;;;;;;3.93;63.97;98734.44;7845215;31;39565;-81
2021/12/05 21:05:13;;;;;;;38.13;21.83;;;;;;;4.01;63.69;98728.59;7843840;31;38452;-81
2021/12/05 21:09:30;;;;;;;33.60;20.17;;;;;;;3.80;63.97;98724.09;7845124;31;36872;-81
2021/12/05 21:13:46;;;;;;;33.92;19.75;;;;;;;4.00;63.63;98742.34;7844940;31;39803;-81
2021/12/05 21:18:03;;;;;;;39.78;21.25;;;;;;;4.12;62.73;98735.75;7844650;31;40704;-80
2021/12/05 21:22:20;;;;;;;34.58;20.55;;;;;;;3.93;63.77;98729.06;7844599;31;38800;-80
2021/12/05 21:26:37;;;;;;;34.65;19.92;;;;;;;4.01;63.35;98731.31;7842403;31;37919;-81
2021/12/05 21:30:56;;;;;;;31.92;18.98;;;;;;;4.12;63.24;98719.56;7842154;31;39493;-81
2021/12/05 21:35:17;;;;;;;32.08;18.50;;;;;;;4.03;63.56;98714.88;7842158;31;40158;-80
2021/12/05 21:39:35;;;;;;;36.05;20.75;;;;;;;3.82;63.99;98736.22;7841985;31;37885;-78
2021/12/05 21:43:54;;;;;;;32.05;19.62;;;;;;;4.03;63.20;98748.03;7845965;31;37772;-79
2021/12/05 21:48:12;;;;;;;33.60;18.15;;;;;;;4.05;63.01;98750.47;7838372;31;39150;-80
2021/12/05 21:52:30;;;;;;;36.10;19.87;;;;;;;3.97;63.54;98740.97;7846441;31;39713;-79
2021/12/05 21:56:48;;;;;;;32.33;19.23;;;;;;;4.01;63.40;98744.78;7847065;31;37624;-78
2021/12/05 22:01:08;;;;;;;33.33;18.20;;;;;;;3.69;64.33;98750.94;7848227;31;37984;-79
2021/12/05 22:05:26;;;;;;;40.90;21.85;;;;;;;4.05;63.50;98745.91;7848121;31;39323;-79
2021/12/05 22:09:42;;;;;;;36.17;21.37;;;;;;;4.03;63.47;98753.44;7848130;31;39834;-78
2021/12/05 22:13:58;;;;;;;34.25;20.02;;;;;;;3.96;63.81;98750.13;7848079;31;37833;-78
2021/12/05 22:18:15;;;;;;;34.22;19.33;;;;;;;3.87;64.15;98754.34;7841108;31;37887;-79
2021/12/05 22:22:32;;;;;;;34.05;19.73;;;;;;;3.97;63.90;98749.06;7846712;31;39159;-78
2021/12/05 22:26:48;;;;;;;43.72;22.17;;;;;;;3.88;64.28;98745.19;7847369;31;39929;-78
2021/12/05 22:31:05;;;;;;;35.08;20.37;;;;;;;3.94;63.78;98738.78;7846653;31;38479;-78
2021/12/05 22:35:23;;;;;;;32.80;19.83;;;;;;;4.08;63.54;98734.59;7846464;31;36905;-77
2021/12/05 22:39:39;;;;;;;32.20;20.37;;;;;;;4.03;63.58;98736.44;7846576;31;39754;-78
2021/12/05 22:43:55;;;;;;;39.22;21.35;;;;;;;4.02;64.45;98738.34;7846895;31;39787;-79
2021/12/05 22:48:12;;;;;;;36.70;21.12;;;;;;;3.98;64.17;98739.88;7846333;31;37673;-78
2021/12/05 22:52:28;;;;;;;37.83;21.48;;;;;;;4.00;63.76;98737.78;7847406;31;37145;-78
2021/12/05 22:56:44;;;;;;;36.00;21.02;;;;;;;4.05;63.66;98728.91;7847118;31;39903;-78
2021/12/05 23:01:19;;;;;;;33.05;19.60;;;;;;;4.13;63.08;98721.16;7846336;31;40731;-79
2021/12/05 23:05:36;;;;;;;34.67;21.37;;;;;;;3.89;64.18;98723.34;7847128;31;37950;-79
2021/12/05 23:09:52;;;;;;;34.78;19.65;;;;;;;3.94;63.74;98725.31;7846002;31;37158;-78
2021/12/05 23:14:10;;;;;;;38.35;21.00;;;;;;;3.85;64.02;98716.03;7847384;31;39174;-79
2021/12/05 23:18:26;;;;;;;38.53;21.67;;;;;;;4.04;63.47;98728.09;7846288;31;39883;-78
2021/12/05 23:22:42;;;;;;;37.33;19.52;;;;;;;3.76;64.36;98716.50;7846383;31;38651;-79
2021/12/05 23:27:00;;;;;;;40.40;21.95;;;;;;;4.01;63.55;98709.72;7846785;31;37133;-78
2021/12/05 23:31:17;;;;;;;38.22;22.58;;;;;;;4.05;63.44;98708.16;7845811;31;39919;-79
2021/12/05 23:35:35;;;;;;;38.33;21.12;;;;;;;4.05;63.56;98737.00;7846661;31;39744;-79
2021/12/05 23:39:51;;;;;;;37.90;21.65;;;;;;;3.78;64.61;98728.87;7845822;31;37873;-79
2021/12/05 23:44:08;;;;;;;39.75;20.60;;;;;;;3.74;64.46;98713.25;7846764;31;37064;-78
2021/12/05 23:48:24;;;;;;;42.17;22.08;;;;;;;3.60;64.87;98698.50;7846172;31;39249;-77
2021/12/05 23:52:42;;;;;;;39.35;22.62;;;;;;;3.91;64.09;98696.13;7845824;31;39882;-78
2021/12/05 23:56:58;;;;;;;42.28;23.42;;;;;;;4.03;63.75;98696.78;7846338;31;37683;-78
